createdAt,value
2019-05-05T00:00:32.780Z,2.10
2019-05-05T00:03:05.919Z,2.10
2019-05-05T00:05:36.360Z,2.10
2019-05-05T00:08:05.252Z,2.20
2019-05-05T00:10:35.531Z,2.00
2019-05-05T00:13:08.613Z,2.00
2019-05-05T00:15:55.409Z,2.00
2019-05-05T00:18:25.661Z,1.90
2019-05-05T00:20:55.181Z,1.90
2019-05-05T00:23:25.097Z,1.90
2019-05-05T00:25:55.246Z,1.80
2019-05-05T00:28:24.848Z,1.80
2019-05-05T00:30:55.350Z,1.80
2019-05-05T00:33:24.891Z,1.80
2019-05-05T00:35:54.503Z,1.70
2019-05-05T00:38:24.899Z,1.70
2019-05-05T00:40:55.021Z,1.80
2019-05-05T00:43:25.256Z,1.70
2019-05-05T00:45:55.832Z,1.60
2019-05-05T00:48:35.147Z,1.50
2019-05-05T00:51:04.673Z,1.50
2019-05-05T00:53:34.443Z,1.50
2019-05-05T00:56:04.987Z,1.50
2019-05-05T00:58:35.345Z,1.40
2019-05-05T01:01:11.818Z,1.40
2019-05-05T01:03:40.396Z,1.50
2019-05-05T01:06:10.670Z,1.40
2019-05-05T01:08:39.374Z,1.40
2019-05-05T01:11:08.199Z,1.40
2019-05-05T01:13:36.906Z,1.40
2019-05-05T01:16:05.506Z,1.30
2019-05-05T01:18:35.162Z,1.30
2019-05-05T01:21:04.607Z,1.40
2019-05-05T01:23:34.985Z,1.40
2019-05-05T01:26:05.044Z,1.30
2019-05-05T01:28:35.566Z,1.30
2019-05-05T01:31:06.124Z,1.30
2019-05-05T01:33:36.387Z,1.30
2019-05-05T01:36:05.180Z,1.40
2019-05-05T01:38:47.689Z,1.30
2019-05-05T01:41:34.799Z,1.40
2019-05-05T01:44:04.825Z,1.30
2019-05-05T01:46:35.345Z,1.30
2019-05-05T01:49:05.365Z,1.30
2019-05-05T01:51:35.478Z,1.40
2019-05-05T01:54:05.198Z,1.30
2019-05-05T01:56:35.231Z,1.30
2019-05-05T01:59:05.150Z,1.30
2019-05-05T02:01:35.249Z,1.30
2019-05-05T02:04:05.505Z,1.30
2019-05-05T02:06:34.980Z,1.30
2019-05-05T02:09:06.111Z,1.30
2019-05-05T02:11:35.385Z,1.40
2019-05-05T02:14:05.144Z,1.50
2019-05-05T02:16:34.744Z,1.50
2019-05-05T02:19:05.083Z,1.40
2019-05-05T02:21:35.302Z,1.50
2019-05-05T02:24:05.214Z,1.40
2019-05-05T02:26:35.110Z,1.40
2019-05-05T02:29:05.621Z,1.40
2019-05-05T02:31:36.173Z,1.40
2019-05-05T02:34:05.563Z,1.50
2019-05-05T02:36:35.460Z,1.40
2019-05-05T02:39:05.922Z,1.40
2019-05-05T02:41:34.879Z,1.40
2019-05-05T02:44:05.100Z,1.40
2019-05-05T02:46:45.335Z,1.40
2019-05-05T02:49:15.302Z,1.40
2019-05-05T02:51:45.136Z,1.40
2019-05-05T02:54:14.303Z,1.30
2019-05-05T02:56:45.710Z,1.40
2019-05-05T02:59:17.588Z,1.30
2019-05-05T03:01:54.031Z,1.30
2019-05-05T03:04:24.457Z,1.30
2019-05-05T03:06:56.036Z,1.40
2019-05-05T03:09:26.545Z,1.40
2019-05-05T03:11:58.323Z,1.30
2019-05-05T03:14:29.570Z,1.40
2019-05-05T03:16:58.205Z,1.40
2019-05-05T03:19:27.406Z,1.40
2019-05-05T03:21:57.100Z,1.40
2019-05-05T03:24:25.740Z,1.30
2019-05-05T03:26:54.559Z,1.30
2019-05-05T03:29:24.439Z,1.40
2019-05-05T03:31:56.297Z,1.30
2019-05-05T03:34:24.112Z,1.30
2019-05-05T03:36:53.721Z,1.40
2019-05-05T03:39:24.272Z,1.30
2019-05-05T03:42:06.968Z,1.40
2019-05-05T03:44:37.379Z,1.40
2019-05-05T03:47:06.288Z,1.30
2019-05-05T03:49:54.227Z,1.30
2019-05-05T03:52:24.478Z,1.30
2019-05-05T03:54:54.219Z,1.30
2019-05-05T03:57:24.624Z,1.30
2019-05-05T03:59:54.776Z,1.30
2019-05-05T04:02:25.241Z,1.30
2019-05-05T04:04:55.448Z,1.40
2019-05-05T04:07:24.319Z,1.30
2019-05-05T04:09:54.258Z,1.30
2019-05-05T04:12:24.150Z,1.30
2019-05-05T04:14:54.582Z,1.30
2019-05-05T04:17:40.253Z,1.40
2019-05-05T04:20:10.849Z,1.30
2019-05-05T04:22:39.449Z,1.40
2019-05-05T04:25:08.014Z,1.40
2019-05-05T04:27:36.569Z,1.40
2019-05-05T04:30:06.721Z,1.50
2019-05-05T04:32:35.355Z,1.40
2019-05-05T04:35:06.909Z,1.40
2019-05-05T04:37:35.573Z,1.40
2019-05-05T04:40:04.786Z,1.40
2019-05-05T04:42:33.744Z,1.50
2019-05-05T04:45:04.268Z,1.40
2019-05-05T04:47:37.043Z,1.50
2019-05-05T04:50:25.254Z,1.40
2019-05-05T04:52:55.508Z,1.40
2019-05-05T04:55:24.796Z,1.50
2019-05-05T04:57:54.076Z,1.40
2019-05-05T05:00:24.184Z,1.40
2019-05-05T05:02:57.210Z,1.50
2019-05-05T05:05:27.546Z,1.60
2019-05-05T05:07:57.995Z,1.70
2019-05-05T05:10:26.470Z,1.70
2019-05-05T05:12:55.067Z,1.70
2019-05-05T05:15:24.035Z,1.60
2019-05-05T05:18:04.170Z,1.60
2019-05-05T05:20:34.018Z,1.70
2019-05-05T05:23:03.672Z,1.60
2019-05-05T05:25:34.485Z,1.60
2019-05-05T05:28:04.177Z,1.70
2019-05-05T05:30:34.675Z,1.70
2019-05-05T05:33:04.329Z,1.70
2019-05-05T05:35:33.579Z,1.70
2019-05-05T05:38:04.451Z,1.70
2019-05-05T05:40:39.982Z,1.70
2019-05-05T05:43:10.251Z,1.70
2019-05-05T05:45:43.621Z,1.80
2019-05-05T05:48:14.519Z,1.70
2019-05-05T05:50:47.838Z,2.00
2019-05-05T05:53:16.394Z,1.80
2019-05-05T05:55:44.972Z,1.90
2019-05-05T05:58:14.182Z,1.90
2019-05-05T06:00:44.232Z,1.80
2019-05-05T06:03:14.071Z,1.90
2019-05-05T06:05:43.639Z,2.00
2019-05-05T06:08:14.111Z,2.00
2019-05-05T06:10:44.266Z,2.00
2019-05-05T06:13:15.321Z,2.00
2019-05-05T06:15:44.384Z,2.00
2019-05-05T06:18:13.820Z,2.00
2019-05-05T06:20:44.571Z,2.10
2019-05-05T06:23:14.696Z,2.20
2019-05-05T06:25:44.533Z,2.30
2019-05-05T06:28:14.560Z,2.30
2019-05-05T06:30:44.355Z,2.20
2019-05-05T06:33:13.792Z,2.20
2019-05-05T06:35:44.304Z,2.30
2019-05-05T06:38:13.652Z,2.30
2019-05-05T06:40:49.792Z,2.30
2019-05-05T06:43:20.026Z,2.40
2019-05-05T06:45:55.969Z,2.40
2019-05-05T06:48:24.616Z,2.50
2019-05-05T06:50:54.411Z,2.40
2019-05-05T06:53:23.909Z,2.30
2019-05-05T06:55:54.264Z,2.40
2019-05-05T06:58:24.135Z,2.50
2019-05-05T07:00:54.290Z,2.40
2019-05-05T07:03:24.324Z,2.40
2019-05-05T07:05:53.903Z,2.50
2019-05-05T07:08:24.402Z,2.50
2019-05-05T07:10:54.883Z,2.50
2019-05-05T07:13:24.452Z,2.60
2019-05-05T07:15:54.241Z,2.70
2019-05-05T07:18:24.723Z,2.70
2019-05-05T07:20:54.601Z,2.60
2019-05-05T07:23:24.613Z,2.60
2019-05-05T07:25:54.997Z,2.60
2019-05-05T07:28:23.727Z,2.60
2019-05-05T07:30:54.590Z,2.70
2019-05-05T07:33:23.860Z,2.70
2019-05-05T07:36:00.228Z,2.80
2019-05-05T07:38:24.554Z,2.70
2019-05-05T07:40:54.510Z,2.80
2019-05-05T07:43:23.986Z,2.90
2019-05-05T07:45:54.016Z,3.00
2019-05-05T07:48:24.290Z,3.10
2019-05-05T07:51:02.145Z,3.10
2019-05-05T07:53:24.534Z,3.10
2019-05-05T07:55:54.190Z,3.10
2019-05-05T07:58:24.246Z,3.00
2019-05-05T08:00:54.138Z,3.00
2019-05-05T08:03:23.610Z,3.00
2019-05-05T08:05:54.401Z,3.00
2019-05-05T08:08:24.319Z,3.10
2019-05-05T08:10:54.206Z,3.20
2019-05-05T08:13:24.360Z,3.20
2019-05-05T08:15:59.837Z,3.20
2019-05-05T08:18:29.071Z,3.30
2019-05-05T08:21:01.816Z,3.40
2019-05-05T08:23:35.533Z,3.30
2019-05-05T08:26:05.970Z,3.20
2019-05-05T08:28:45.218Z,3.40
2019-05-05T08:31:15.479Z,3.50
2019-05-05T08:33:44.268Z,3.50
2019-05-05T08:36:14.689Z,3.50
2019-05-05T08:38:44.100Z,3.40
2019-05-05T08:41:13.881Z,3.50
2019-05-05T08:43:44.065Z,3.60
2019-05-05T08:46:15.150Z,3.60
2019-05-05T08:48:44.744Z,3.60
2019-05-05T08:51:14.179Z,3.70
2019-05-05T08:53:47.975Z,3.70
2019-05-05T08:56:14.651Z,3.70
2019-05-05T08:58:43.808Z,3.80
2019-05-05T09:01:14.789Z,3.80
2019-05-05T09:03:44.347Z,3.80
2019-05-05T09:06:13.705Z,3.80
2019-05-05T09:08:44.126Z,3.90
2019-05-05T09:11:14.001Z,4.00
2019-05-05T09:13:44.658Z,4.00
2019-05-05T09:16:14.455Z,3.90
2019-05-05T09:18:45.226Z,3.90
2019-05-05T09:21:14.166Z,3.90
2019-05-05T09:23:58.200Z,3.90
2019-05-05T09:26:17.317Z,3.90
2019-05-05T09:28:50.544Z,3.90
2019-05-05T09:31:19.138Z,3.90
2019-05-05T09:33:47.716Z,4.00
2019-05-05T09:36:16.492Z,4.20
2019-05-05T09:38:45.164Z,4.10
2019-05-05T09:41:14.320Z,4.10
2019-05-05T09:43:44.609Z,4.20
2019-05-05T09:46:14.357Z,4.20
2019-05-05T09:48:44.034Z,4.00
2019-05-05T09:51:13.653Z,4.00
2019-05-05T09:53:44.620Z,4.00
2019-05-05T09:56:14.566Z,4.10
2019-05-05T09:58:44.042Z,4.30
2019-05-05T10:01:14.063Z,4.50
2019-05-05T10:03:44.556Z,4.60
2019-05-05T10:06:14.253Z,4.70
2019-05-05T10:08:44.616Z,4.80
2019-05-05T10:11:16.417Z,5.20
2019-05-05T10:13:44.259Z,5.30
2019-05-05T10:16:14.427Z,5.30
2019-05-05T10:18:44.796Z,5.40
2019-05-05T10:21:13.975Z,5.50
2019-05-05T10:23:44.187Z,5.50
2019-05-05T10:26:14.782Z,5.50
2019-05-05T10:28:44.485Z,5.40
2019-05-05T10:31:13.849Z,5.60
2019-05-05T10:33:44.305Z,5.70
2019-05-05T10:36:13.839Z,5.80
2019-05-05T10:38:44.549Z,5.80
2019-05-05T10:41:13.612Z,5.70
2019-05-05T10:43:43.701Z,5.70
2019-05-05T10:46:14.304Z,5.60
2019-05-05T10:48:44.437Z,5.50
2019-05-05T10:51:14.475Z,5.50
2019-05-05T10:53:43.785Z,5.40
2019-05-05T10:56:13.735Z,5.40
2019-05-05T10:58:44.132Z,5.50
2019-05-05T11:01:14.553Z,5.50
2019-05-05T11:03:44.680Z,5.40
2019-05-05T11:06:13.744Z,5.60
2019-05-05T11:08:42.495Z,5.80
2019-05-05T11:11:13.550Z,5.80
2019-05-05T11:13:44.989Z,5.50
2019-05-05T11:16:14.439Z,5.40
2019-05-05T11:18:42.933Z,5.20
2019-05-05T11:21:11.534Z,5.20
2019-05-05T11:23:40.137Z,5.20
2019-05-05T11:26:08.731Z,5.30
2019-05-05T11:28:37.311Z,5.60
2019-05-05T11:31:05.999Z,5.70
2019-05-05T11:33:48.593Z,5.80
2019-05-05T11:36:23.892Z,5.80
2019-05-05T11:38:53.684Z,5.80
2019-05-05T11:41:24.117Z,5.80
2019-05-05T11:43:53.462Z,5.70
2019-05-05T11:46:24.546Z,5.80
2019-05-05T11:48:54.398Z,5.80
2019-05-05T11:51:24.818Z,6.00
2019-05-05T11:53:53.978Z,5.90
2019-05-05T11:56:22.951Z,5.90
2019-05-05T11:58:54.522Z,5.90
2019-05-05T12:01:24.272Z,6.10
2019-05-05T12:03:53.597Z,6.10
2019-05-05T12:06:24.511Z,6.00
2019-05-05T12:08:52.585Z,5.90
2019-05-05T12:11:21.126Z,5.90
2019-05-05T12:13:49.816Z,5.90
2019-05-05T12:16:19.922Z,5.80
2019-05-05T12:18:48.546Z,5.80
2019-05-05T12:21:17.099Z,5.80
2019-05-05T12:23:46.137Z,5.90
2019-05-05T12:26:16.299Z,5.90
2019-05-05T12:28:49.816Z,5.90
2019-05-05T12:31:24.782Z,5.90
2019-05-05T12:33:54.797Z,6.00
2019-05-05T12:36:23.766Z,6.10
2019-05-05T12:38:54.567Z,6.30
2019-05-05T12:41:23.951Z,6.30
2019-05-05T12:43:54.936Z,6.40
2019-05-05T12:46:30.568Z,6.50
2019-05-05T12:49:00.921Z,6.60
2019-05-05T12:51:29.509Z,6.60
2019-05-05T12:53:58.065Z,6.60
2019-05-05T12:56:26.699Z,6.70
2019-05-05T12:58:55.346Z,6.90
2019-05-05T13:01:33.437Z,7.00
2019-05-05T13:04:03.460Z,6.90
2019-05-05T13:06:32.009Z,6.80
2019-05-05T13:09:00.735Z,6.90
2019-05-05T13:11:30.309Z,6.80
2019-05-05T13:14:18.252Z,6.70
2019-05-05T13:16:52.502Z,6.60
2019-05-05T13:19:24.053Z,6.70
2019-05-05T13:21:59.631Z,6.60
2019-05-05T13:24:29.906Z,6.70
2019-05-05T13:27:00.172Z,6.60
2019-05-05T13:29:29.580Z,6.70
2019-05-05T13:31:58.276Z,6.70
2019-05-05T13:34:26.861Z,6.50
2019-05-05T13:36:55.464Z,6.50
2019-05-05T13:39:24.783Z,6.60
2019-05-05T13:41:54.002Z,6.50
2019-05-05T13:44:30.434Z,6.50
2019-05-05T13:46:59.024Z,6.50
2019-05-05T13:49:29.307Z,6.50
2019-05-05T13:51:59.604Z,6.70
2019-05-05T13:54:28.166Z,6.80
2019-05-05T13:56:56.726Z,6.90
2019-05-05T13:59:25.666Z,7.00
2019-05-05T14:01:54.323Z,7.00
2019-05-05T14:04:22.943Z,7.20
2019-05-05T14:06:54.407Z,7.10
2019-05-05T14:09:24.912Z,6.90
2019-05-05T14:11:53.669Z,6.90
2019-05-05T14:14:24.133Z,6.90
2019-05-05T14:16:53.782Z,7.00
2019-05-05T14:19:24.706Z,7.10
2019-05-05T14:21:53.826Z,7.00
2019-05-05T14:24:27.158Z,6.90
2019-05-05T14:26:55.793Z,7.00
2019-05-05T14:29:44.098Z,6.80
2019-05-05T14:32:14.290Z,6.80
2019-05-05T14:34:47.251Z,6.80
2019-05-05T14:37:24.898Z,6.90
2019-05-05T14:39:54.783Z,6.80
2019-05-05T14:42:23.654Z,6.70
2019-05-05T14:44:54.389Z,6.60
2019-05-05T14:47:24.546Z,6.70
2019-05-05T14:49:54.001Z,6.70
2019-05-05T14:52:24.530Z,6.70
2019-05-05T14:54:54.327Z,6.50
2019-05-05T14:57:24.920Z,6.50
2019-05-05T14:59:53.973Z,6.40
2019-05-05T15:02:24.272Z,6.50
2019-05-05T15:04:55.030Z,6.50
2019-05-05T15:07:25.802Z,6.50
2019-05-05T15:10:14.523Z,6.40
2019-05-05T15:12:44.855Z,6.50
2019-05-05T15:15:14.327Z,6.40
2019-05-05T15:17:42.957Z,6.40
2019-05-05T15:20:13.431Z,6.40
2019-05-05T15:22:43.648Z,6.40
2019-05-05T15:25:12.711Z,6.50
2019-05-05T15:27:41.991Z,6.50
2019-05-05T15:30:11.726Z,6.50
2019-05-05T15:32:40.276Z,6.40
2019-05-05T15:35:09.972Z,6.40
2019-05-05T15:37:38.553Z,6.40
2019-05-05T15:40:07.223Z,6.40
2019-05-05T15:42:37.361Z,6.40
2019-05-05T15:45:06.761Z,6.40
2019-05-05T15:47:35.431Z,6.40
2019-05-05T15:50:07.294Z,6.50
2019-05-05T15:52:35.970Z,6.40
2019-05-05T15:55:09.040Z,6.40
2019-05-05T15:57:37.674Z,6.30
2019-05-05T16:00:08.411Z,6.30
2019-05-05T16:02:37.034Z,6.30
2019-05-05T16:05:09.323Z,6.30
2019-05-05T16:07:38.017Z,6.30
2019-05-05T16:10:08.602Z,6.30
2019-05-05T16:12:39.767Z,6.30
2019-05-05T16:15:20.049Z,6.20
2019-05-05T16:17:59.339Z,6.30
2019-05-05T16:20:44.895Z,6.30
2019-05-05T16:23:15.385Z,6.30
2019-05-05T16:25:46.359Z,6.20
2019-05-05T16:28:14.604Z,6.20
2019-05-05T16:30:46.014Z,6.30
2019-05-05T16:33:14.534Z,6.20
2019-05-05T16:35:43.839Z,6.20
2019-05-05T16:38:14.713Z,6.20
2019-05-05T16:40:44.310Z,6.20
2019-05-05T16:43:14.086Z,6.20
2019-05-05T16:45:44.528Z,6.20
2019-05-05T16:48:13.464Z,6.10
2019-05-05T16:50:44.126Z,6.10
2019-05-05T16:53:31.493Z,6.10
2019-05-05T16:56:00.296Z,6.10
2019-05-05T16:58:33.362Z,6.10
2019-05-05T17:01:03.953Z,6.10
2019-05-05T17:03:32.681Z,6.10
2019-05-05T17:06:03.604Z,6.00
2019-05-05T17:08:33.602Z,6.10
2019-05-05T17:11:02.013Z,6.10
2019-05-05T17:13:35.023Z,6.00
2019-05-05T17:16:08.351Z,6.00
2019-05-05T17:18:38.616Z,6.00
2019-05-05T17:21:25.394Z,6.00
2019-05-05T17:23:54.374Z,6.00
2019-05-05T17:26:24.293Z,5.90
2019-05-05T17:38:34.094Z,5.80
2019-05-05T17:41:04.231Z,5.80
2019-05-05T17:43:34.583Z,5.80
2019-05-05T17:46:10.646Z,5.80
2019-05-05T17:48:59.207Z,5.70
2019-05-05T17:51:40.224Z,5.80
2019-05-05T17:54:13.570Z,5.70
2019-05-05T17:56:42.246Z,5.60
2019-05-05T17:59:16.612Z,5.60
2019-05-05T18:01:45.420Z,5.60
2019-05-05T18:04:14.214Z,5.60
2019-05-05T18:06:47.376Z,5.60
2019-05-05T18:09:35.901Z,5.60
2019-05-05T18:12:13.918Z,5.60
2019-05-05T18:14:47.174Z,5.60
2019-05-05T18:17:15.764Z,5.60
2019-05-05T18:19:44.485Z,5.50
2019-05-05T18:22:13.897Z,5.50
2019-05-05T18:24:44.521Z,5.60
2019-05-05T18:27:14.073Z,5.50
2019-05-05T18:29:43.624Z,5.50
2019-05-05T18:32:13.850Z,5.50
2019-05-05T18:34:47.069Z,5.50
2019-05-05T18:37:20.351Z,5.50
2019-05-05T18:39:49.701Z,5.50
2019-05-05T18:42:24.593Z,5.50
2019-05-05T18:44:55.020Z,5.50
2019-05-05T18:47:25.142Z,5.50
2019-05-05T18:49:54.125Z,5.50
2019-05-05T18:52:24.506Z,5.50
2019-05-05T18:55:12.594Z,5.50
2019-05-05T18:57:43.364Z,5.50
2019-05-05T19:00:16.609Z,5.40
2019-05-05T19:02:49.539Z,5.40
2019-05-05T19:05:19.991Z,5.40
2019-05-05T19:07:55.428Z,5.40
2019-05-05T19:10:20.419Z,5.40
2019-05-05T19:12:50.740Z,5.40
2019-05-05T19:15:19.241Z,5.40
2019-05-05T19:17:47.912Z,5.40
2019-05-05T19:20:18.182Z,5.40
2019-05-05T19:22:48.296Z,5.40
2019-05-05T19:25:16.985Z,5.40
2019-05-05T19:27:46.176Z,5.40
2019-05-05T19:30:17.405Z,5.40
2019-05-05T19:32:45.997Z,5.40
2019-05-05T19:35:14.892Z,5.40
2019-05-05T19:37:44.514Z,5.30
2019-05-05T19:40:16.314Z,5.30
2019-05-05T19:42:46.275Z,5.30
2019-05-05T19:45:15.413Z,5.40
2019-05-05T19:47:44.163Z,5.30
2019-05-05T19:50:29.334Z,5.30
2019-05-05T19:52:58.361Z,5.30
2019-05-05T19:55:26.904Z,5.30
2019-05-05T19:57:57.948Z,5.40
2019-05-05T20:00:26.805Z,5.30
2019-05-05T20:03:04.357Z,5.30
2019-05-05T20:05:25.978Z,5.30
2019-05-05T20:07:55.343Z,5.20
2019-05-05T20:10:24.363Z,5.30
2019-05-05T20:13:05.815Z,5.20
2019-05-05T20:15:44.142Z,5.20
2019-05-05T20:18:14.096Z,5.20
2019-05-05T20:20:44.372Z,5.10
2019-05-05T20:23:13.708Z,5.10
2019-05-05T20:25:44.657Z,5.10
2019-05-05T20:28:14.458Z,5.20
2019-05-05T20:30:42.954Z,5.10
2019-05-05T20:33:19.178Z,5.10
2019-05-05T20:35:49.441Z,5.10
2019-05-05T20:38:23.850Z,5.10
2019-05-05T20:41:10.560Z,5.10
2019-05-05T20:43:39.346Z,5.00
2019-05-05T20:46:08.878Z,5.00
2019-05-05T20:48:41.051Z,5.00
2019-05-05T20:51:08.700Z,5.00
2019-05-05T20:53:37.428Z,5.00
2019-05-05T20:56:05.988Z,5.00
2019-05-05T20:58:34.541Z,5.00
2019-05-05T21:01:04.986Z,5.00
2019-05-05T21:03:34.701Z,5.00
2019-05-05T21:06:04.446Z,4.90
2019-05-05T21:08:34.753Z,5.00
2019-05-05T21:11:04.416Z,5.00
2019-05-05T21:13:34.356Z,5.00
2019-05-05T21:16:03.158Z,5.00
2019-05-05T21:18:31.788Z,5.00
2019-05-05T21:21:04.339Z,5.00
2019-05-05T21:23:34.331Z,5.00
2019-05-05T21:26:13.920Z,5.00
2019-05-05T21:28:44.415Z,4.90
2019-05-05T21:31:14.518Z,4.90
2019-05-05T21:33:45.167Z,4.90
2019-05-05T21:36:14.708Z,4.90
2019-05-05T21:38:44.116Z,4.90
2019-05-05T21:41:13.865Z,4.90
2019-05-05T21:43:44.726Z,4.90
2019-05-05T21:46:12.806Z,4.80
2019-05-05T21:48:41.407Z,4.80
2019-05-05T21:51:17.663Z,4.80
2019-05-05T21:53:48.044Z,4.80
2019-05-05T21:56:27.418Z,4.90
2019-05-05T21:58:57.060Z,4.90
2019-05-05T22:01:27.837Z,4.90
2019-05-05T22:03:56.764Z,5.00
2019-05-05T22:06:25.482Z,4.90
2019-05-05T22:08:54.065Z,4.90
2019-05-05T22:11:24.253Z,5.00
2019-05-05T22:13:54.017Z,5.00
2019-05-05T22:16:22.974Z,5.00
2019-05-05T22:18:54.040Z,5.00
2019-05-05T22:21:27.772Z,5.00
2019-05-05T22:24:16.131Z,5.00
2019-05-05T22:26:45.206Z,4.90
2019-05-05T22:29:17.034Z,4.90
2019-05-05T22:31:45.681Z,4.90
2019-05-05T22:34:14.677Z,4.80
2019-05-05T22:36:44.853Z,4.90
2019-05-05T22:39:16.843Z,4.90
2019-05-05T22:41:45.351Z,4.80
2019-05-05T22:44:14.190Z,4.80
2019-05-05T22:46:43.050Z,4.80
2019-05-05T22:49:11.971Z,4.80
2019-05-05T22:51:40.521Z,4.80
2019-05-05T22:54:09.363Z,4.80
2019-05-05T22:56:38.174Z,4.80
2019-05-05T22:59:07.871Z,4.80
2019-05-05T23:01:36.613Z,4.80
2019-05-05T23:04:14.454Z,4.70
2019-05-05T23:06:44.703Z,4.80
2019-05-05T23:09:14.717Z,4.70
2019-05-05T23:11:44.029Z,4.70
2019-05-05T23:14:28.221Z,4.70
2019-05-05T23:17:12.293Z,4.60
2019-05-05T23:19:44.375Z,4.60
2019-05-05T23:22:29.768Z,4.60
2019-05-05T23:25:05.734Z,4.60
2019-05-05T23:27:47.312Z,4.60
2019-05-05T23:30:16.469Z,4.60
2019-05-05T23:32:46.348Z,4.50
2019-05-05T23:35:14.960Z,4.40
2019-05-05T23:37:44.907Z,4.50
2019-05-05T23:40:25.304Z,4.50
2019-05-05T23:42:54.805Z,4.50
2019-05-05T23:45:24.712Z,4.40
2019-05-05T23:47:54.489Z,4.40
2019-05-05T23:50:24.410Z,4.30
2019-05-05T23:52:54.549Z,4.20
2019-05-05T23:55:24.073Z,4.20
2019-05-05T23:57:54.721Z,4.20
